aviador You're here:

RJOO Decoded Metar

OSAKA in JAPAN
Report Time2018-07-22 06:00:00
UTC Time2018-07-22 07:08:33
Flight Rules Old
Wind220° at 08 kt
W.Decomp.*RWY 14: 0.4 kt HW 8.0 kt RCW
W.Rank220° ranks 5
Current wind is above 220° avg. (6.2)
Visibility9999 m
Phenomena:N/A
Clouds:Few 030 Hf
Expected CloudBase > 6,400 ft AGL from Temp-Dew spread
CeilingNone
Temp35°C (ISA +20)
Dew Point19°C (39% RH)
Heat Index36.9°C
QNH1008 hPa
Density Alt2,789 ft
Elevation49 ft
Report Wrong Elevation
Raw Report
RJOO 220600Z 22008KT 160V270 9999 FEW030 BKN/// 35/19 Q1008 RMK
1CU030 A2979=

Extra information for RJOO:More info

Metar Taf Metar & Taf Last 4 Metars F.Rules Stats Wind Profile Meteogram Temp Stats Airport Information Weather charts Add Link Nearby VenuesMetar ALERT Operation Metar Decoded Social comments